RYR33TT LHBP-LROP
Flight info
| Callsign | RYR33TT |
|---|---|
| Flight time | 1h 4m |
| Altitude | 35000 |
| Route | VETIK DCT BUDOP DCT LAMIT DCT TOSVI |
| Aircraft | B738/M-SDE2E3FGHIRWXY/LB1 |
Departure
| Time | 2026-05-04 20:41 |
|---|---|
| Airport | Budapest Liszt Ferenc International Airport (LHBP) |
Arrival
| Time | 2026-05-04 21:45 |
|---|---|
| Airport | Bucharest Henri Coandă International Airport (LROP) |
| Time | Latitude | Longitude | Altitude | Speed | Heading |
|---|---|---|---|---|---|
| 2026-05-04 18:58 | 47.43554 | 19.25817 | 457 ft | 0 kts | 312° |
| 2026-05-04 20:28 | 47.43550 | 19.25824 | 456 ft | 2 kts | 313° |
| 2026-05-04 20:28 | 47.43540 | 19.25839 | 457 ft | 2 kts | 319° |
| 2026-05-04 20:28 | 47.43526 | 19.25853 | 455 ft | 2 kts | 339° |
| 2026-05-04 20:29 | 47.43510 | 19.25853 | 455 ft | 2 kts | 35° |
| 2026-05-04 20:29 | 47.43503 | 19.25844 | 452 ft | 1 kts | 44° |
| 2026-05-04 20:33 | 47.43503 | 19.25845 | 452 ft | 1 kts | 44° |
| 2026-05-04 20:33 | 47.43526 | 19.25878 | 455 ft | 9 kts | 43° |
| 2026-05-04 20:33 | 47.43581 | 19.25949 | 456 ft | 12 kts | 41° |
| 2026-05-04 20:34 | 47.43638 | 19.26022 | 455 ft | 7 kts | 41° |
| 2026-05-04 20:34 | 47.43689 | 19.26041 | 455 ft | 8 kts | 342° |
| 2026-05-04 20:34 | 47.43729 | 19.25978 | 456 ft | 9 kts | 310° |
| 2026-05-04 20:34 | 47.43774 | 19.25904 | 456 ft | 10 kts | 312° |
| 2026-05-04 20:35 | 47.43838 | 19.25861 | 456 ft | 11 kts | 10° |
| 2026-05-04 20:35 | 47.43904 | 19.25923 | 456 ft | 12 kts | 40° |
| 2026-05-04 20:35 | 47.43969 | 19.26004 | 457 ft | 13 kts | 39° |
| 2026-05-04 20:35 | 47.44046 | 19.26004 | 457 ft | 13 kts | 303° |
| 2026-05-04 20:36 | 47.44107 | 19.25900 | 457 ft | 14 kts | 312° |
| 2026-05-04 20:36 | 47.44178 | 19.25785 | 457 ft | 16 kts | 312° |
| 2026-05-04 20:36 | 47.44255 | 19.25663 | 457 ft | 17 kts | 313° |
| 2026-05-04 20:36 | 47.44349 | 19.25561 | 458 ft | 17 kts | 345° |
| 2026-05-04 20:37 | 47.44450 | 19.25589 | 460 ft | 0 kts | 33° |
| 2026-05-04 20:39 | 47.44455 | 19.25594 | 461 ft | 4 kts | 33° |
| 2026-05-04 20:39 | 47.44494 | 19.25653 | 468 ft | 10 kts | 62° |
| 2026-05-04 20:40 | 47.44504 | 19.25767 | 476 ft | 16 kts | 97° |
| 2026-05-04 20:40 | 47.44423 | 19.25955 | 474 ft | 30 kts | 131° |
| 2026-05-04 20:40 | 47.44133 | 19.26424 | 471 ft | 96 kts | 133° |
| 2026-05-04 20:40 | 47.43552 | 19.27370 | 472 ft | 150 kts | 131° |
| 2026-05-04 20:41 | 47.42784 | 19.28619 | 810 ft | 171 kts | 133° |
| 2026-05-04 20:41 | 47.41965 | 19.29928 | 1520 ft | 174 kts | 127° |
| 2026-05-04 20:41 | 47.41426 | 19.31489 | 2378 ft | 172 kts | 122° |
| 2026-05-04 20:41 | 47.40833 | 19.33108 | 2850 ft | 197 kts | 123° |
| 2026-05-04 20:42 | 47.40112 | 19.35013 | 3090 ft | 223 kts | 123° |
| 2026-05-04 20:42 | 47.39310 | 19.37078 | 3386 ft | 238 kts | 123° |
| 2026-05-04 20:42 | 47.38566 | 19.39298 | 3900 ft | 247 kts | 109° |
| 2026-05-04 20:42 | 47.38491 | 19.41846 | 4548 ft | 255 kts | 81° |
| 2026-05-04 20:43 | 47.39216 | 19.44251 | 5189 ft | 262 kts | 53° |
| 2026-05-04 20:43 | 47.40508 | 19.46301 | 5658 ft | 280 kts | 44° |
| 2026-05-04 20:43 | 47.41947 | 19.48281 | 6460 ft | 284 kts | 43° |
| 2026-05-04 20:43 | 47.43405 | 19.50264 | 7320 ft | 286 kts | 43° |
| 2026-05-04 20:44 | 47.44854 | 19.52249 | 8062 ft | 290 kts | 43° |
| 2026-05-04 20:44 | 47.46359 | 19.54331 | 8857 ft | 294 kts | 44° |
| 2026-05-04 20:44 | 47.47838 | 19.56391 | 9618 ft | 298 kts | 44° |
| 2026-05-04 20:44 | 47.49358 | 19.58519 | 10349 ft | 304 kts | 44° |
| 2026-05-04 20:45 | 47.50955 | 19.60766 | 10586 ft | 328 kts | 44° |
| 2026-05-04 20:45 | 47.52662 | 19.63172 | 10758 ft | 351 kts | 44° |
| 2026-05-04 20:45 | 47.54471 | 19.65725 | 11181 ft | 363 kts | 45° |
| 2026-05-04 20:45 | 47.56024 | 19.68687 | 11837 ft | 366 kts | 65° |
| 2026-05-04 20:46 | 47.56728 | 19.72282 | 12625 ft | 364 kts | 86° |
| 2026-05-04 20:46 | 47.56520 | 19.76001 | 13400 ft | 365 kts | 106° |
| 2026-05-04 20:46 | 47.55484 | 19.79421 | 14110 ft | 366 kts | 123° |
| 2026-05-04 20:46 | 47.54079 | 19.82587 | 14798 ft | 370 kts | 125° |
| 2026-05-04 20:47 | 47.52629 | 19.85701 | 15472 ft | 374 kts | 125° |
| 2026-05-04 20:47 | 47.51136 | 19.88881 | 16167 ft | 378 kts | 125° |
| 2026-05-04 20:47 | 47.49636 | 19.92093 | 16861 ft | 382 kts | 125° |
| 2026-05-04 20:47 | 47.48126 | 19.95354 | 17550 ft | 386 kts | 124° |
| 2026-05-04 20:48 | 47.46607 | 19.98656 | 18208 ft | 390 kts | 124° |
| 2026-05-04 20:48 | 47.45079 | 20.01992 | 18782 ft | 394 kts | 124° |
| 2026-05-04 20:48 | 47.43549 | 20.05333 | 19344 ft | 398 kts | 124° |
| 2026-05-04 20:48 | 47.41991 | 20.08735 | 19893 ft | 402 kts | 124° |
| 2026-05-04 20:49 | 47.40415 | 20.12175 | 20447 ft | 406 kts | 124° |
| 2026-05-04 20:49 | 47.38824 | 20.15641 | 20995 ft | 410 kts | 124° |
| 2026-05-04 20:49 | 47.37218 | 20.19134 | 21567 ft | 413 kts | 124° |
| 2026-05-04 20:49 | 47.35593 | 20.22662 | 22088 ft | 417 kts | 123° |
| 2026-05-04 20:50 | 47.33918 | 20.26182 | 22623 ft | 421 kts | 126° |
| 2026-05-04 20:50 | 47.32160 | 20.29634 | 23166 ft | 424 kts | 127° |
| 2026-05-04 20:50 | 47.30351 | 20.33091 | 23658 ft | 427 kts | 127° |
| 2026-05-04 20:50 | 47.28515 | 20.36576 | 24070 ft | 431 kts | 127° |
| 2026-05-04 20:51 | 47.26674 | 20.40079 | 24485 ft | 434 kts | 127° |
| 2026-05-04 20:51 | 47.24830 | 20.43602 | 24894 ft | 437 kts | 127° |
| 2026-05-04 20:51 | 47.22972 | 20.47167 | 25295 ft | 440 kts | 126° |
| 2026-05-04 20:51 | 47.21128 | 20.50711 | 25666 ft | 443 kts | 126° |
| 2026-05-04 20:52 | 47.19242 | 20.54337 | 26063 ft | 446 kts | 126° |
| 2026-05-04 20:52 | 47.17352 | 20.57970 | 26455 ft | 449 kts | 126° |
| 2026-05-04 20:52 | 47.15449 | 20.61624 | 26818 ft | 452 kts | 126° |
| 2026-05-04 20:52 | 47.13536 | 20.65293 | 27186 ft | 455 kts | 126° |
| 2026-05-04 20:53 | 47.11605 | 20.68992 | 27562 ft | 457 kts | 126° |
| 2026-05-04 20:53 | 47.09661 | 20.72709 | 27914 ft | 460 kts | 126° |
| 2026-05-04 20:53 | 47.07703 | 20.76448 | 28255 ft | 463 kts | 126° |
| 2026-05-04 20:53 | 47.05733 | 20.80205 | 28590 ft | 465 kts | 126° |
| 2026-05-04 20:54 | 47.03750 | 20.83980 | 28930 ft | 468 kts | 126° |
| 2026-05-04 20:54 | 47.01760 | 20.87764 | 29247 ft | 470 kts | 126° |
| 2026-05-04 20:54 | 46.99757 | 20.91566 | 29557 ft | 473 kts | 126° |
| 2026-05-04 20:54 | 46.97739 | 20.95394 | 29862 ft | 475 kts | 126° |
| 2026-05-04 20:55 | 46.95710 | 20.99235 | 30232 ft | 476 kts | 126° |
| 2026-05-04 20:55 | 46.93692 | 21.03049 | 30666 ft | 473 kts | 126° |
| 2026-05-04 20:55 | 46.91680 | 21.06848 | 31117 ft | 470 kts | 126° |
| 2026-05-04 20:55 | 46.89701 | 21.10578 | 31506 ft | 469 kts | 126° |
| 2026-05-04 20:56 | 46.87697 | 21.14352 | 31853 ft | 469 kts | 126° |
| 2026-05-04 20:56 | 46.85693 | 21.18122 | 32188 ft | 469 kts | 126° |
| 2026-05-04 20:56 | 46.83699 | 21.21867 | 32588 ft | 467 kts | 125° |
| 2026-05-04 20:56 | 46.81703 | 21.25611 | 32977 ft | 466 kts | 125° |
| 2026-05-04 20:57 | 46.79711 | 21.29343 | 33321 ft | 465 kts | 125° |
| 2026-05-04 20:57 | 46.77719 | 21.33069 | 33673 ft | 465 kts | 125° |
| 2026-05-04 20:57 | 46.75730 | 21.36786 | 34033 ft | 464 kts | 125° |
| 2026-05-04 20:57 | 46.73746 | 21.40491 | 34359 ft | 462 kts | 125° |
| 2026-05-04 20:58 | 46.71763 | 21.44186 | 34641 ft | 462 kts | 126° |
| 2026-05-04 20:58 | 46.69775 | 21.47878 | 34878 ft | 463 kts | 126° |
| 2026-05-04 20:58 | 46.67609 | 21.51351 | 35060 ft | 467 kts | 135° |
| 2026-05-04 20:58 | 46.65156 | 21.54469 | 35070 ft | 468 kts | 138° |
| 2026-05-04 20:59 | 46.60172 | 21.60464 | 35078 ft | 467 kts | 138° |
| 2026-05-04 20:59 | 46.55169 | 21.66462 | 35082 ft | 466 kts | 138° |
| 2026-05-04 21:00 | 46.50194 | 21.72497 | 35081 ft | 465 kts | 137° |
| 2026-05-04 21:00 | 46.45244 | 21.78529 | 35081 ft | 465 kts | 137° |
| 2026-05-04 21:01 | 46.40287 | 21.84564 | 35085 ft | 465 kts | 137° |
| 2026-05-04 21:01 | 46.35318 | 21.90596 | 35087 ft | 466 kts | 137° |
| 2026-05-04 21:02 | 46.30340 | 21.96621 | 35091 ft | 466 kts | 138° |
| 2026-05-04 21:02 | 46.25364 | 22.02629 | 35100 ft | 467 kts | 138° |
| 2026-05-04 21:03 | 46.20369 | 22.08645 | 35096 ft | 467 kts | 138° |
| 2026-05-04 21:03 | 46.15371 | 22.14651 | 35094 ft | 468 kts | 138° |
| 2026-05-04 21:04 | 46.10396 | 22.20613 | 35103 ft | 468 kts | 138° |
| 2026-05-04 21:04 | 46.05382 | 22.26608 | 35111 ft | 468 kts | 138° |
| 2026-05-04 21:05 | 46.00361 | 22.32596 | 35101 ft | 469 kts | 138° |
| 2026-05-04 21:05 | 45.95332 | 22.38580 | 35108 ft | 469 kts | 138° |
| 2026-05-04 21:06 | 45.90298 | 22.44555 | 35113 ft | 469 kts | 138° |
| 2026-05-04 21:06 | 45.85262 | 22.50517 | 35117 ft | 469 kts | 139° |
| 2026-05-04 21:07 | 45.80221 | 22.56471 | 35113 ft | 470 kts | 139° |
| 2026-05-04 21:07 | 45.75200 | 22.62387 | 35115 ft | 470 kts | 139° |
| 2026-05-04 21:08 | 45.70154 | 22.68319 | 35126 ft | 469 kts | 139° |
| 2026-05-04 21:08 | 45.65102 | 22.74243 | 35117 ft | 469 kts | 139° |
| 2026-05-04 21:09 | 45.60052 | 22.80151 | 35128 ft | 468 kts | 139° |
| 2026-05-04 21:09 | 45.55038 | 22.86002 | 35121 ft | 468 kts | 139° |
| 2026-05-04 21:10 | 45.50003 | 22.91864 | 35134 ft | 467 kts | 139° |
| 2026-05-04 21:10 | 45.44960 | 22.97721 | 35129 ft | 467 kts | 139° |
| 2026-05-04 21:11 | 45.39916 | 23.03567 | 35123 ft | 467 kts | 139° |
| 2026-05-04 21:11 | 45.35726 | 23.08412 | 35116 ft | 467 kts | 139° |
| 2026-05-04 21:12 | 45.30682 | 23.14231 | 35120 ft | 466 kts | 139° |
| 2026-05-04 21:12 | 45.25648 | 23.20026 | 35100 ft | 466 kts | 139° |
| 2026-05-04 21:13 | 45.20608 | 23.25816 | 35105 ft | 465 kts | 139° |
| 2026-05-04 21:13 | 45.15601 | 23.31554 | 35104 ft | 465 kts | 139° |
| 2026-05-04 21:14 | 45.11131 | 23.38063 | 35105 ft | 460 kts | 120° |
| 2026-05-04 21:14 | 45.08597 | 23.46264 | 35110 ft | 453 kts | 102° |
| 2026-05-04 21:15 | 45.07022 | 23.54905 | 35101 ft | 454 kts | 101° |
| 2026-05-04 21:15 | 45.05479 | 23.63418 | 35079 ft | 432 kts | 102° |
| 2026-05-04 21:16 | 45.04726 | 23.67462 | 34961 ft | 421 kts | 102° |
| 2026-05-04 21:16 | 45.03973 | 23.71468 | 34310 ft | 425 kts | 102° |
| 2026-05-04 21:16 | 45.03199 | 23.75569 | 33253 ft | 437 kts | 102° |
| 2026-05-04 21:16 | 45.02402 | 23.79770 | 32203 ft | 448 kts | 102° |
| 2026-05-04 21:17 | 45.01584 | 23.84058 | 31287 ft | 454 kts | 103° |
| 2026-05-04 21:17 | 45.00767 | 23.88316 | 30688 ft | 453 kts | 103° |
| 2026-05-04 21:17 | 44.99941 | 23.92593 | 30243 ft | 448 kts | 103° |
| 2026-05-04 21:17 | 44.99124 | 23.96818 | 29740 ft | 443 kts | 103° |
| 2026-05-04 21:18 | 44.98318 | 24.00982 | 29192 ft | 438 kts | 103° |
| 2026-05-04 21:18 | 44.97513 | 24.05132 | 28632 ft | 434 kts | 103° |
| 2026-05-04 21:18 | 44.96722 | 24.09208 | 28087 ft | 430 kts | 103° |
| 2026-05-04 21:18 | 44.95931 | 24.13279 | 27561 ft | 427 kts | 103° |
| 2026-05-04 21:19 | 44.95150 | 24.17292 | 27060 ft | 423 kts | 103° |
| 2026-05-04 21:19 | 44.94372 | 24.21280 | 26547 ft | 419 kts | 103° |
| 2026-05-04 21:19 | 44.93596 | 24.25248 | 26061 ft | 416 kts | 103° |
| 2026-05-04 21:19 | 44.92835 | 24.29131 | 25581 ft | 412 kts | 103° |
| 2026-05-04 21:20 | 44.92072 | 24.33017 | 25113 ft | 409 kts | 103° |
| 2026-05-04 21:20 | 44.91314 | 24.36870 | 24645 ft | 406 kts | 103° |
| 2026-05-04 21:20 | 44.90559 | 24.40698 | 24186 ft | 402 kts | 103° |
| 2026-05-04 21:20 | 44.89811 | 24.44489 | 23744 ft | 399 kts | 103° |
| 2026-05-04 21:21 | 44.89069 | 24.48237 | 23236 ft | 395 kts | 103° |
| 2026-05-04 21:21 | 44.88331 | 24.51957 | 22723 ft | 392 kts | 103° |
| 2026-05-04 21:21 | 44.87599 | 24.55641 | 22233 ft | 389 kts | 103° |
| 2026-05-04 21:21 | 44.86874 | 24.59288 | 21771 ft | 385 kts | 103° |
| 2026-05-04 21:22 | 44.86161 | 24.62866 | 21303 ft | 382 kts | 103° |
| 2026-05-04 21:22 | 44.85442 | 24.66464 | 20841 ft | 380 kts | 103° |
| 2026-05-04 21:22 | 44.84727 | 24.70034 | 20380 ft | 377 kts | 103° |
| 2026-05-04 21:22 | 44.84020 | 24.73565 | 19927 ft | 374 kts | 103° |
| 2026-05-04 21:23 | 44.83313 | 24.77087 | 19506 ft | 370 kts | 103° |
| 2026-05-04 21:23 | 44.82615 | 24.80563 | 19088 ft | 367 kts | 103° |
| 2026-05-04 21:23 | 44.81919 | 24.84015 | 18663 ft | 365 kts | 103° |
| 2026-05-04 21:23 | 44.81228 | 24.87438 | 18234 ft | 361 kts | 103° |
| 2026-05-04 21:24 | 44.80541 | 24.90836 | 17628 ft | 361 kts | 103° |
| 2026-05-04 21:24 | 44.79847 | 24.94270 | 16621 ft | 366 kts | 103° |
| 2026-05-04 21:24 | 44.79145 | 24.97734 | 15783 ft | 368 kts | 103° |
| 2026-05-04 21:24 | 44.78461 | 25.01089 | 15495 ft | 349 kts | 103° |
| 2026-05-04 21:25 | 44.77797 | 25.04347 | 15118 ft | 344 kts | 103° |
| 2026-05-04 21:25 | 44.77141 | 25.07572 | 14697 ft | 342 kts | 103° |
| 2026-05-04 21:25 | 44.76486 | 25.10769 | 14322 ft | 338 kts | 102° |
| 2026-05-04 21:25 | 44.75839 | 25.13884 | 14193 ft | 327 kts | 102° |
| 2026-05-04 21:26 | 44.75239 | 25.16917 | 14006 ft | 317 kts | 100° |
| 2026-05-04 21:26 | 44.74757 | 25.19922 | 13788 ft | 312 kts | 98° |
| 2026-05-04 21:26 | 44.74321 | 25.22900 | 13554 ft | 310 kts | 98° |
| 2026-05-04 21:26 | 44.73898 | 25.25816 | 13335 ft | 308 kts | 98° |
| 2026-05-04 21:27 | 44.73461 | 25.28779 | 13122 ft | 311 kts | 98° |
| 2026-05-04 21:27 | 44.73012 | 25.31777 | 12904 ft | 314 kts | 98° |
| 2026-05-04 21:27 | 44.72557 | 25.34780 | 12681 ft | 314 kts | 98° |
| 2026-05-04 21:27 | 44.72101 | 25.37767 | 12465 ft | 312 kts | 98° |
| 2026-05-04 21:28 | 44.71644 | 25.40738 | 12243 ft | 310 kts | 98° |
| 2026-05-04 21:28 | 44.71199 | 25.43703 | 12031 ft | 308 kts | 95° |
| 2026-05-04 21:28 | 44.71174 | 25.46667 | 11823 ft | 301 kts | 80° |
| 2026-05-04 21:28 | 44.71424 | 25.49580 | 11617 ft | 299 kts | 79° |
| 2026-05-04 21:29 | 44.71687 | 25.52486 | 11408 ft | 299 kts | 79° |
| 2026-05-04 21:29 | 44.71943 | 25.55390 | 11196 ft | 299 kts | 79° |
| 2026-05-04 21:29 | 44.72189 | 25.58293 | 10988 ft | 299 kts | 79° |
| 2026-05-04 21:29 | 44.72426 | 25.61158 | 10779 ft | 298 kts | 79° |
| 2026-05-04 21:30 | 44.72660 | 25.64042 | 10566 ft | 294 kts | 79° |
| 2026-05-04 21:30 | 44.72884 | 25.66869 | 10365 ft | 287 kts | 79° |
| 2026-05-04 21:30 | 44.73101 | 25.69615 | 10157 ft | 277 kts | 79° |
| 2026-05-04 21:30 | 44.73306 | 25.72250 | 10014 ft | 262 kts | 79° |
| 2026-05-04 21:31 | 44.72820 | 25.77158 | 9622 ft | 265 kts | 117° |
| 2026-05-04 21:31 | 44.71505 | 25.79021 | 9422 ft | 274 kts | 142° |
| 2026-05-04 21:31 | 44.69726 | 25.79964 | 9231 ft | 283 kts | 166° |
| 2026-05-04 21:32 | 44.67762 | 25.80281 | 9060 ft | 287 kts | 176° |
| 2026-05-04 21:32 | 44.65799 | 25.79666 | 8809 ft | 293 kts | 207° |
| 2026-05-04 21:32 | 44.64257 | 25.77857 | 8615 ft | 290 kts | 238° |
| 2026-05-04 21:32 | 44.63459 | 25.75327 | 8429 ft | 280 kts | 263° |
| 2026-05-04 21:33 | 44.63201 | 25.72635 | 8240 ft | 277 kts | 269° |
| 2026-05-04 21:33 | 44.63009 | 25.69936 | 8035 ft | 277 kts | 269° |
| 2026-05-04 21:33 | 44.62827 | 25.67250 | 7846 ft | 277 kts | 269° |
| 2026-05-04 21:33 | 44.62627 | 25.64558 | 7655 ft | 276 kts | 269° |
| 2026-05-04 21:34 | 44.62420 | 25.61889 | 7461 ft | 275 kts | 268° |
| 2026-05-04 21:34 | 44.62208 | 25.59223 | 7276 ft | 273 kts | 268° |
| 2026-05-04 21:34 | 44.61997 | 25.56574 | 7095 ft | 272 kts | 268° |
| 2026-05-04 21:34 | 44.61784 | 25.53942 | 6882 ft | 270 kts | 268° |
| 2026-05-04 21:35 | 44.61576 | 25.51382 | 6798 ft | 255 kts | 268° |
| 2026-05-04 21:35 | 44.61146 | 25.49074 | 6642 ft | 246 kts | 243° |
| 2026-05-04 21:35 | 44.60013 | 25.47381 | 6526 ft | 235 kts | 212° |
| 2026-05-04 21:35 | 44.58513 | 25.46597 | 6231 ft | 230 kts | 185° |
| 2026-05-04 21:36 | 44.56962 | 25.46594 | 6069 ft | 219 kts | 171° |
| 2026-05-04 21:36 | 44.55452 | 25.46831 | 5899 ft | 219 kts | 170° |
| 2026-05-04 21:36 | 44.53933 | 25.47136 | 5742 ft | 221 kts | 160° |
| 2026-05-04 21:36 | 44.52671 | 25.48229 | 5602 ft | 211 kts | 120° |
| 2026-05-04 21:37 | 44.52279 | 25.50074 | 5557 ft | 194 kts | 76° |
| 2026-05-04 21:37 | 44.52918 | 25.51610 | 5566 ft | 185 kts | 32° |
| 2026-05-04 21:37 | 44.54125 | 25.52239 | 5569 ft | 188 kts | 21° |
| 2026-05-04 21:37 | 44.55255 | 25.53140 | 5549 ft | 186 kts | 38° |
| 2026-05-04 21:38 | 44.56189 | 25.54407 | 5420 ft | 190 kts | 48° |
| 2026-05-04 21:38 | 44.56975 | 25.55925 | 5217 ft | 193 kts | 54° |
| 2026-05-04 21:38 | 44.57643 | 25.57533 | 5012 ft | 193 kts | 59° |
| 2026-05-04 21:38 | 44.58217 | 25.59221 | 4803 ft | 191 kts | 64° |
| 2026-05-04 21:39 | 44.58664 | 25.60957 | 4584 ft | 190 kts | 77° |
| 2026-05-04 21:39 | 44.58468 | 25.62798 | 4362 ft | 198 kts | 116° |
| 2026-05-04 21:39 | 44.57497 | 25.64197 | 4202 ft | 204 kts | 140° |
| 2026-05-04 21:39 | 44.56308 | 25.65380 | 3681 ft | 218 kts | 142° |
| 2026-05-04 21:40 | 44.55046 | 25.66637 | 3101 ft | 229 kts | 141° |
| 2026-05-04 21:40 | 44.54027 | 25.68310 | 2736 ft | 224 kts | 106° |
| 2026-05-04 21:40 | 44.53893 | 25.70372 | 2610 ft | 204 kts | 87° |
| 2026-05-04 21:40 | 44.53950 | 25.72303 | 2489 ft | 192 kts | 84° |
| 2026-05-04 21:41 | 44.54049 | 25.74160 | 2505 ft | 193 kts | 83° |
| 2026-05-04 21:41 | 44.54173 | 25.76057 | 2497 ft | 198 kts | 83° |
| 2026-05-04 21:41 | 44.54307 | 25.78006 | 2524 ft | 204 kts | 82° |
| 2026-05-04 21:41 | 44.54456 | 25.80058 | 2491 ft | 216 kts | 82° |
| 2026-05-04 21:42 | 44.54605 | 25.82148 | 2447 ft | 217 kts | 83° |
| 2026-05-04 21:42 | 44.54740 | 25.84254 | 2472 ft | 218 kts | 82° |
| 2026-05-04 21:42 | 44.54906 | 25.86395 | 2496 ft | 224 kts | 82° |
| 2026-05-04 21:42 | 44.55070 | 25.88574 | 2504 ft | 224 kts | 82° |
| 2026-05-04 21:43 | 44.55226 | 25.90705 | 2439 ft | 217 kts | 83° |
| 2026-05-04 21:43 | 44.55381 | 25.92869 | 2193 ft | 229 kts | 82° |
| 2026-05-04 21:43 | 44.55550 | 25.95099 | 1943 ft | 230 kts | 83° |
| 2026-05-04 21:43 | 44.55706 | 25.97288 | 1703 ft | 225 kts | 83° |
| 2026-05-04 21:44 | 44.55864 | 25.99475 | 1370 ft | 223 kts | 83° |
| 2026-05-04 21:44 | 44.56022 | 26.01599 | 1135 ft | 216 kts | 83° |
| 2026-05-04 21:44 | 44.56172 | 26.03643 | 952 ft | 200 kts | 83° |
| 2026-05-04 21:44 | 44.56298 | 26.05519 | 668 ft | 191 kts | 84° |
| 2026-05-04 21:45 | 44.56432 | 26.07324 | 407 ft | 180 kts | 83° |
| 2026-05-04 21:45 | 44.56570 | 26.08960 | 318 ft | 149 kts | 84° |
| 2026-05-04 21:45 | 44.56649 | 26.10104 | 317 ft | 86 kts | 84° |
| 2026-05-04 21:45 | 44.56673 | 26.10436 | 316 ft | 0 kts | 84° |
| 2026-05-04 21:46 | 44.56694 | 26.10640 | 315 ft | 42 kts | 77° |
| 2026-05-04 21:46 | 44.56831 | 26.10756 | 314 ft | 16 kts | 358° |
| 2026-05-04 21:46 | 44.56953 | 26.10730 | 315 ft | 20 kts | 345° |
| 2026-05-04 21:46 | 44.57055 | 26.10582 | 314 ft | 24 kts | 297° |
| 2026-05-04 21:47 | 44.57058 | 26.10349 | 316 ft | 11 kts | 264° |
| 2026-05-04 21:47 | 44.57057 | 26.10345 | 316 ft | 0 kts | 264° |
| 2026-05-04 21:47 | 44.57051 | 26.10252 | 316 ft | 18 kts | 264° |
| 2026-05-04 21:48 | 44.57031 | 26.10053 | 316 ft | 21 kts | 264° |
| 2026-05-04 21:48 | 44.57017 | 26.09854 | 317 ft | 20 kts | 264° |
| 2026-05-04 21:48 | 44.57003 | 26.09684 | 317 ft | 0 kts | 263° |
| 2026-05-04 21:49 | 44.56996 | 26.09588 | 318 ft | 19 kts | 264° |
| 2026-05-04 21:49 | 44.56995 | 26.09576 | 318 ft | 0 kts | 264° |
| 2026-05-04 21:50 | 44.56995 | 26.09575 | 318 ft | 0 kts | 264° |
| 2026-05-04 21:50 | 44.56995 | 26.09573 | 318 ft | 1 kts | 264° |
| 2026-05-04 21:50 | 44.56985 | 26.09450 | 318 ft | 20 kts | 264° |
| 2026-05-04 21:50 | 44.56970 | 26.09258 | 318 ft | 19 kts | 264° |
| 2026-05-04 21:51 | 44.56956 | 26.09076 | 319 ft | 18 kts | 264° |
| 2026-05-04 21:51 | 44.56943 | 26.08903 | 319 ft | 17 kts | 264° |
| 2026-05-04 21:51 | 44.56934 | 26.08781 | 319 ft | 0 kts | 264° |
| 2026-05-04 21:53 | 44.56934 | 26.08780 | 319 ft | 0 kts | 264° |
| 2026-05-04 21:53 | 44.56933 | 26.08763 | 319 ft | 0 kts | 264° |
| 2026-05-04 21:53 | 44.56933 | 26.08762 | 319 ft | 1 kts | 264° |
| 2026-05-04 21:54 | 44.56921 | 26.08725 | 320 ft | 15 kts | 231° |
| 2026-05-04 21:54 | 44.56870 | 26.08712 | 319 ft | 5 kts | 150° |
| 2026-05-04 21:54 | 44.56865 | 26.08714 | 319 ft | 0 kts | 160° |